Terminal Aerodrome Forecast
Issued by NWS

Home | Current Version | Previous Version | Text Only | Print | Product List | Glossary Off
Versions: 1 2 3 4 5 6 7 8 9 10 11 12 13 14

000
FTUS43 KBIS 231800 AAA
TAFMOT
TAF AMD
KMOT 231845Z 2319/2418 16012KT P6SM FEW220
      TEMPO 2400/2404 BKN025
     FM241100 19007KT P6SM FEW190=

USA.gov is the U.S. government's official web portal to all federal, state and local government web resources and services.